sensor_id;sensor_type;location;lat;lon;timestamp;P1;durP1;ratioP1;P2;durP2;ratioP2
75616;SDS011;64200;55.426;37.758;2024-02-23T00:04:06;13.07;;;6.57;;
75616;SDS011;64200;55.426;37.758;2024-02-23T00:09:07;17.92;;;9.45;;
75616;SDS011;64200;55.426;37.758;2024-02-23T00:14:08;19.00;;;8.50;;
75616;SDS011;64200;55.426;37.758;2024-02-23T00:19:09;16.27;;;6.43;;
75616;SDS011;64200;55.426;37.758;2024-02-23T00:24:10;18.98;;;7.55;;
75616;SDS011;64200;55.426;37.758;2024-02-23T00:29:10;17.77;;;8.70;;
75616;SDS011;64200;55.426;37.758;2024-02-23T00:34:11;19.60;;;9.70;;
75616;SDS011;64200;55.426;37.758;2024-02-23T00:39:13;10.75;;;5.28;;
75616;SDS011;64200;55.426;37.758;2024-02-23T00:44:13;18.92;;;8.18;;
75616;SDS011;64200;55.426;37.758;2024-02-23T00:49:14;17.58;;;8.75;;
75616;SDS011;64200;55.426;37.758;2024-02-23T00:54:15;19.85;;;5.32;;
75616;SDS011;64200;55.426;37.758;2024-02-23T00:59:15;19.20;;;7.75;;
75616;SDS011;64200;55.426;37.758;2024-02-23T01:04:16;11.40;;;6.53;;
75616;SDS011;64200;55.426;37.758;2024-02-23T01:09:17;16.20;;;7.03;;
75616;SDS011;64200;55.426;37.758;2024-02-23T01:14:20;26.35;;;10.60;;
75616;SDS011;64200;55.426;37.758;2024-02-23T01:19:21;24.70;;;9.27;;
75616;SDS011;64200;55.426;37.758;2024-02-23T01:24:21;22.50;;;8.80;;
75616;SDS011;64200;55.426;37.758;2024-02-23T01:29:22;19.17;;;9.30;;
75616;SDS011;64200;55.426;37.758;2024-02-23T01:34:22;17.98;;;7.88;;
75616;SDS011;64200;55.426;37.758;2024-02-23T01:39:23;10.47;;;5.50;;
75616;SDS011;64200;55.426;37.758;2024-02-23T01:44:24;16.95;;;6.75;;
75616;SDS011;64200;55.426;37.758;2024-02-23T01:49:25;16.85;;;7.72;;
75616;SDS011;64200;55.426;37.758;2024-02-23T01:54:29;14.57;;;6.78;;
75616;SDS011;64200;55.426;37.758;2024-02-23T01:59:31;17.65;;;7.07;;
75616;SDS011;64200;55.426;37.758;2024-02-23T02:04:31;9.30;;;4.80;;
75616;SDS011;64200;55.426;37.758;2024-02-23T02:09:32;14.95;;;6.45;;
75616;SDS011;64200;55.426;37.758;2024-02-23T02:14:33;14.77;;;5.53;;
75616;SDS011;64200;55.426;37.758;2024-02-23T02:19:33;12.00;;;5.00;;
75616;SDS011;64200;55.426;37.758;2024-02-23T02:24:34;27.75;;;10.75;;
75616;SDS011;64200;55.426;37.758;2024-02-23T02:29:35;10.52;;;5.05;;
75616;SDS011;64200;55.426;37.758;2024-02-23T02:34:36;13.07;;;7.45;;
75616;SDS011;64200;55.426;37.758;2024-02-23T02:39:36;10.63;;;4.30;;
75616;SDS011;64200;55.426;37.758;2024-02-23T02:44:37;22.37;;;8.83;;
75616;SDS011;64200;55.426;37.758;2024-02-23T02:49:39;20.45;;;8.50;;
75616;SDS011;64200;55.426;37.758;2024-02-23T02:54:40;7.30;;;4.65;;
75616;SDS011;64200;55.426;37.758;2024-02-23T02:59:40;22.83;;;11.00;;
75616;SDS011;64200;55.426;37.758;2024-02-23T03:04:50;14.60;;;5.23;;
75616;SDS011;64200;55.426;37.758;2024-02-23T03:09:51;20.00;;;8.48;;
75616;SDS011;64200;55.426;37.758;2024-02-23T03:14:51;16.67;;;6.53;;
75616;SDS011;64200;55.426;37.758;2024-02-23T03:19:52;10.23;;;4.32;;
75616;SDS011;64200;55.426;37.758;2024-02-23T03:24:52;26.77;;;10.33;;
75616;SDS011;64200;55.426;37.758;2024-02-23T03:29:53;14.00;;;7.70;;
75616;SDS011;64200;55.426;37.758;2024-02-23T03:34:54;25.02;;;9.35;;
75616;SDS011;64200;55.426;37.758;2024-02-23T03:39:54;24.20;;;9.23;;
75616;SDS011;64200;55.426;37.758;2024-02-23T03:44:55;11.52;;;5.05;;
75616;SDS011;64200;55.426;37.758;2024-02-23T03:49:55;13.38;;;5.50;;
75616;SDS011;64200;55.426;37.758;2024-02-23T03:54:56;21.20;;;7.63;;
75616;SDS011;64200;55.426;37.758;2024-02-23T03:59:56;20.17;;;6.30;;
75616;SDS011;64200;55.426;37.758;2024-02-23T04:04:57;20.92;;;9.38;;
75616;SDS011;64200;55.426;37.758;2024-02-23T04:09:58;17.80;;;7.57;;
75616;SDS011;64200;55.426;37.758;2024-02-23T04:14:58;18.27;;;8.55;;
75616;SDS011;64200;55.426;37.758;2024-02-23T04:20:00;30.30;;;10.32;;
75616;SDS011;64200;55.426;37.758;2024-02-23T04:30:07;16.85;;;7.38;;
75616;SDS011;64200;55.426;37.758;2024-02-23T04:35:08;15.13;;;7.30;;
75616;SDS011;64200;55.426;37.758;2024-02-23T04:40:08;28.52;;;9.70;;
75616;SDS011;64200;55.426;37.758;2024-02-23T04:45:09;19.35;;;7.70;;
75616;SDS011;64200;55.426;37.758;2024-02-23T04:50:10;14.57;;;5.47;;
75616;SDS011;64200;55.426;37.758;2024-02-23T04:55:10;10.80;;;4.93;;
75616;SDS011;64200;55.426;37.758;2024-02-23T05:00:11;15.57;;;6.40;;
75616;SDS011;64200;55.426;37.758;2024-02-23T05:05:12;16.27;;;6.90;;
75616;SDS011;64200;55.426;37.758;2024-02-23T05:10:12;17.37;;;8.07;;
75616;SDS011;64200;55.426;37.758;2024-02-23T05:15:13;15.63;;;6.65;;
75616;SDS011;64200;55.426;37.758;2024-02-23T05:20:13;16.05;;;7.68;;
75616;SDS011;64200;55.426;37.758;2024-02-23T05:25:14;17.73;;;7.75;;
75616;SDS011;64200;55.426;37.758;2024-02-23T05:30:15;22.15;;;9.63;;
75616;SDS011;64200;55.426;37.758;2024-02-23T05:35:15;15.63;;;7.15;;
75616;SDS011;64200;55.426;37.758;2024-02-23T05:40:16;14.93;;;7.47;;
75616;SDS011;64200;55.426;37.758;2024-02-23T05:45:17;14.87;;;6.63;;
75616;SDS011;64200;55.426;37.758;2024-02-23T05:50:17;16.63;;;7.47;;
75616;SDS011;64200;55.426;37.758;2024-02-23T05:55:18;16.83;;;7.00;;
75616;SDS011;64200;55.426;37.758;2024-02-23T06:00:18;23.70;;;9.20;;
75616;SDS011;64200;55.426;37.758;2024-02-23T06:05:19;18.08;;;7.30;;
75616;SDS011;64200;55.426;37.758;2024-02-23T06:10:20;22.83;;;8.87;;
75616;SDS011;64200;55.426;37.758;2024-02-23T06:15:20;29.33;;;10.33;;
75616;SDS011;64200;55.426;37.758;2024-02-23T06:20:21;12.30;;;6.63;;
75616;SDS011;64200;55.426;37.758;2024-02-23T06:25:21;18.00;;;7.13;;
75616;SDS011;64200;55.426;37.758;2024-02-23T06:30:22;17.23;;;7.87;;
75616;SDS011;64200;55.426;37.758;2024-02-23T06:35:22;14.93;;;7.00;;
75616;SDS011;64200;55.426;37.758;2024-02-23T06:40:23;19.47;;;6.37;;
75616;SDS011;64200;55.426;37.758;2024-02-23T06:45:23;16.77;;;7.70;;
75616;SDS011;64200;55.426;37.758;2024-02-23T06:50:25;13.32;;;5.95;;
75616;SDS011;64200;55.426;37.758;2024-02-23T06:55:26;18.20;;;8.50;;
75616;SDS011;64200;55.426;37.758;2024-02-23T07:00:26;9.97;;;5.60;;
75616;SDS011;64200;55.426;37.758;2024-02-23T07:05:27;22.00;;;7.63;;
75616;SDS011;64200;55.426;37.758;2024-02-23T07:10:28;20.73;;;8.52;;
75616;SDS011;64200;55.426;37.758;2024-02-23T07:15:29;16.20;;;8.57;;
75616;SDS011;64200;55.426;37.758;2024-02-23T07:20:30;13.23;;;6.15;;
75616;SDS011;64200;55.426;37.758;2024-02-23T07:25:30;15.17;;;6.47;;
75616;SDS011;64200;55.426;37.758;2024-02-23T07:30:31;16.60;;;6.03;;
75616;SDS011;64200;55.426;37.758;2024-02-23T07:35:31;19.47;;;8.13;;
75616;SDS011;64200;55.426;37.758;2024-02-23T07:40:32;12.40;;;4.88;;
75616;SDS011;64200;55.426;37.758;2024-02-23T07:45:32;11.23;;;5.40;;
75616;SDS011;64200;55.426;37.758;2024-02-23T07:50:34;16.35;;;6.70;;
75616;SDS011;64200;55.426;37.758;2024-02-23T07:55:35;13.88;;;6.20;;
75616;SDS011;64200;55.426;37.758;2024-02-23T08:00:35;10.90;;;5.28;;
75616;SDS011;64200;55.426;37.758;2024-02-23T08:05:38;12.05;;;5.75;;
75616;SDS011;64200;55.426;37.758;2024-02-23T08:10:39;7.80;;;4.63;;
75616;SDS011;64200;55.426;37.758;2024-02-23T08:15:39;12.70;;;6.07;;
75616;SDS011;64200;55.426;37.758;2024-02-23T08:20:40;12.30;;;5.05;;
75616;SDS011;64200;55.426;37.758;2024-02-23T08:25:41;7.63;;;3.90;;
75616;SDS011;64200;55.426;37.758;2024-02-23T08:30:41;14.47;;;6.70;;
75616;SDS011;64200;55.426;37.758;2024-02-23T08:35:42;8.77;;;4.47;;
75616;SDS011;64200;55.426;37.758;2024-02-23T08:40:43;15.63;;;5.78;;
75616;SDS011;64200;55.426;37.758;2024-02-23T08:45:45;9.68;;;5.30;;
75616;SDS011;64200;55.426;37.758;2024-02-23T08:50:45;16.47;;;6.97;;
75616;SDS011;64200;55.426;37.758;2024-02-23T08:55:46;11.90;;;6.07;;
75616;SDS011;64200;55.426;37.758;2024-02-23T09:00:47;12.70;;;5.63;;
75616;SDS011;64200;55.426;37.758;2024-02-23T09:05:47;16.95;;;7.43;;
75616;SDS011;64200;55.426;37.758;2024-02-23T09:10:48;15.00;;;6.55;;
75616;SDS011;64200;55.426;37.758;2024-02-23T09:15:49;12.98;;;5.70;;
75616;SDS011;64200;55.426;37.758;2024-02-23T09:20:49;17.65;;;6.28;;
75616;SDS011;64200;55.426;37.758;2024-02-23T09:25:51;11.00;;;4.30;;
75616;SDS011;64200;55.426;37.758;2024-02-23T09:30:52;19.42;;;8.65;;
75616;SDS011;64200;55.426;37.758;2024-02-23T09:35:52;16.98;;;8.35;;
75616;SDS011;64200;55.426;37.758;2024-02-23T09:40:54;11.23;;;7.55;;
75616;SDS011;64200;55.426;37.758;2024-02-23T09:45:55;15.77;;;7.43;;
75616;SDS011;64200;55.426;37.758;2024-02-23T09:50:57;15.90;;;5.45;;
75616;SDS011;64200;55.426;37.758;2024-02-23T09:55:59;11.52;;;6.20;;
75616;SDS011;64200;55.426;37.758;2024-02-23T10:01:00;10.98;;;6.70;;
75616;SDS011;64200;55.426;37.758;2024-02-23T10:06:03;15.55;;;6.93;;
75616;SDS011;64200;55.426;37.758;2024-02-23T10:11:04;13.75;;;6.55;;
75616;SDS011;64200;55.426;37.758;2024-02-23T10:16:05;20.90;;;8.82;;
75616;SDS011;64200;55.426;37.758;2024-02-23T10:21:06;16.85;;;7.22;;
75616;SDS011;64200;55.426;37.758;2024-02-23T10:26:07;17.05;;;7.40;;
75616;SDS011;64200;55.426;37.758;2024-02-23T10:31:08;19.15;;;6.70;;
75616;SDS011;64200;55.426;37.758;2024-02-23T10:36:09;15.95;;;6.72;;
75616;SDS011;64200;55.426;37.758;2024-02-23T10:41:13;19.02;;;8.10;;
75616;SDS011;64200;55.426;37.758;2024-02-23T10:46:14;14.88;;;7.82;;
75616;SDS011;64200;55.426;37.758;2024-02-23T10:51:15;22.83;;;8.18;;
75616;SDS011;64200;55.426;37.758;2024-02-23T10:56:16;17.60;;;7.72;;
75616;SDS011;64200;55.426;37.758;2024-02-23T11:01:17;17.70;;;7.68;;
75616;SDS011;64200;55.426;37.758;2024-02-23T11:06:19;13.70;;;5.35;;
75616;SDS011;64200;55.426;37.758;2024-02-23T11:11:23;15.43;;;5.93;;
75616;SDS011;64200;55.426;37.758;2024-02-23T11:16:24;23.63;;;8.25;;
75616;SDS011;64200;55.426;37.758;2024-02-23T11:21:26;25.60;;;9.27;;
75616;SDS011;64200;55.426;37.758;2024-02-23T11:26:36;19.98;;;8.52;;
75616;SDS011;64200;55.426;37.758;2024-02-23T11:31:37;14.10;;;6.43;;
75616;SDS011;64200;55.426;37.758;2024-02-23T11:36:46;18.48;;;8.27;;
75616;SDS011;64200;55.426;37.758;2024-02-23T11:41:51;20.48;;;7.80;;
75616;SDS011;64200;55.426;37.758;2024-02-23T11:46:51;24.88;;;9.43;;
75616;SDS011;64200;55.426;37.758;2024-02-23T11:51:52;17.70;;;8.53;;
75616;SDS011;64200;55.426;37.758;2024-02-23T11:56:53;21.73;;;7.82;;
75616;SDS011;64200;55.426;37.758;2024-02-23T12:01:54;18.90;;;7.55;;
75616;SDS011;64200;55.426;37.758;2024-02-23T12:06:55;31.15;;;12.30;;
75616;SDS011;64200;55.426;37.758;2024-02-23T12:11:56;19.38;;;8.55;;
75616;SDS011;64200;55.426;37.758;2024-02-23T12:16:57;24.63;;;9.05;;
75616;SDS011;64200;55.426;37.758;2024-02-23T12:22:01;32.85;;;8.52;;
75616;SDS011;64200;55.426;37.758;2024-02-23T12:27:02;18.73;;;5.68;;
75616;SDS011;64200;55.426;37.758;2024-02-23T12:32:03;19.70;;;8.27;;
75616;SDS011;64200;55.426;37.758;2024-02-23T12:37:05;24.05;;;8.85;;
75616;SDS011;64200;55.426;37.758;2024-02-23T12:42:05;28.85;;;9.95;;
75616;SDS011;64200;55.426;37.758;2024-02-23T12:47:06;25.65;;;9.02;;
75616;SDS011;64200;55.426;37.758;2024-02-23T12:52:07;22.60;;;9.27;;
75616;SDS011;64200;55.426;37.758;2024-02-23T12:57:07;22.13;;;8.98;;
75616;SDS011;64200;55.426;37.758;2024-02-23T13:02:08;23.02;;;8.90;;
75616;SDS011;64200;55.426;37.758;2024-02-23T13:07:12;33.40;;;12.77;;
75616;SDS011;64200;55.426;37.758;2024-02-23T13:12:12;39.08;;;14.05;;
75616;SDS011;64200;55.426;37.758;2024-02-23T13:17:14;27.70;;;11.35;;
75616;SDS011;64200;55.426;37.758;2024-02-23T13:22:15;28.58;;;9.68;;
75616;SDS011;64200;55.426;37.758;2024-02-23T13:27:15;34.60;;;14.07;;
75616;SDS011;64200;55.426;37.758;2024-02-23T13:32:16;35.70;;;13.73;;
75616;SDS011;64200;55.426;37.758;2024-02-23T13:37:16;27.90;;;11.85;;
75616;SDS011;64200;55.426;37.758;2024-02-23T13:42:17;29.75;;;11.25;;
75616;SDS011;64200;55.426;37.758;2024-02-23T13:47:18;39.95;;;13.45;;
75616;SDS011;64200;55.426;37.758;2024-02-23T13:52:18;37.88;;;14.25;;
75616;SDS011;64200;55.426;37.758;2024-02-23T13:57:19;28.58;;;10.52;;
75616;SDS011;64200;55.426;37.758;2024-02-23T14:02:26;21.80;;;9.98;;
75616;SDS011;64200;55.426;37.758;2024-02-23T14:07:29;34.60;;;12.57;;
75616;SDS011;64200;55.426;37.758;2024-02-23T14:12:29;29.92;;;12.18;;
75616;SDS011;64200;55.426;37.758;2024-02-23T14:17:30;34.85;;;13.57;;
75616;SDS011;64200;55.426;37.758;2024-02-23T14:22:31;33.20;;;12.15;;
75616;SDS011;64200;55.426;37.758;2024-02-23T14:27:32;23.60;;;9.90;;
75616;SDS011;64200;55.426;37.758;2024-02-23T14:32:32;33.58;;;14.32;;
75616;SDS011;64200;55.426;37.758;2024-02-23T14:37:33;23.75;;;9.80;;
75616;SDS011;64200;55.426;37.758;2024-02-23T14:42:34;22.48;;;11.82;;
75616;SDS011;64200;55.426;37.758;2024-02-23T14:47:35;33.90;;;13.75;;
75616;SDS011;64200;55.426;37.758;2024-02-23T14:52:35;29.88;;;11.93;;
75616;SDS011;64200;55.426;37.758;2024-02-23T14:57:39;27.52;;;11.02;;
75616;SDS011;64200;55.426;37.758;2024-02-23T15:02:39;37.55;;;14.77;;
75616;SDS011;64200;55.426;37.758;2024-02-23T15:07:40;26.50;;;10.35;;
75616;SDS011;64200;55.426;37.758;2024-02-23T15:12:41;26.42;;;11.95;;
75616;SDS011;64200;55.426;37.758;2024-02-23T15:17:41;32.72;;;9.77;;
75616;SDS011;64200;55.426;37.758;2024-02-23T15:23:01;28.33;;;13.32;;
75616;SDS011;64200;55.426;37.758;2024-02-23T15:28:02;30.42;;;12.52;;
75616;SDS011;64200;55.426;37.758;2024-02-23T15:33:03;25.95;;;13.38;;
75616;SDS011;64200;55.426;37.758;2024-02-23T15:38:04;30.88;;;12.35;;
75616;SDS011;64200;55.426;37.758;2024-02-23T15:43:04;28.88;;;12.15;;
75616;SDS011;64200;55.426;37.758;2024-02-23T15:48:05;26.55;;;10.77;;
75616;SDS011;64200;55.426;37.758;2024-02-23T15:53:06;23.17;;;10.10;;
75616;SDS011;64200;55.426;37.758;2024-02-23T15:58:06;34.50;;;14.10;;
75616;SDS011;64200;55.426;37.758;2024-02-23T16:03:08;16.25;;;6.50;;
75616;SDS011;64200;55.426;37.758;2024-02-23T16:08:09;14.30;;;6.65;;
75616;SDS011;64200;55.426;37.758;2024-02-23T16:13:09;21.65;;;9.45;;
75616;SDS011;64200;55.426;37.758;2024-02-23T16:18:10;14.20;;;7.40;;
75616;SDS011;64200;55.426;37.758;2024-02-23T16:23:11;12.87;;;7.33;;
75616;SDS011;64200;55.426;37.758;2024-02-23T16:28:11;17.75;;;8.18;;
75616;SDS011;64200;55.426;37.758;2024-02-23T16:33:15;14.23;;;6.90;;
75616;SDS011;64200;55.426;37.758;2024-02-23T16:38:16;13.90;;;5.85;;
75616;SDS011;64200;55.426;37.758;2024-02-23T16:43:16;8.13;;;4.70;;
75616;SDS011;64200;55.426;37.758;2024-02-23T16:48:17;13.93;;;6.23;;
75616;SDS011;64200;55.426;37.758;2024-02-23T16:53:17;11.88;;;5.10;;
75616;SDS011;64200;55.426;37.758;2024-02-23T16:58:18;12.67;;;7.10;;
75616;SDS011;64200;55.426;37.758;2024-02-23T17:03:22;8.00;;;3.53;;
75616;SDS011;64200;55.426;37.758;2024-02-23T17:08:22;23.43;;;7.67;;
75616;SDS011;64200;55.426;37.758;2024-02-23T17:13:23;11.97;;;5.57;;
75616;SDS011;64200;55.426;37.758;2024-02-23T17:18:25;14.05;;;6.22;;
75616;SDS011;64200;55.426;37.758;2024-02-23T17:23:27;14.25;;;5.80;;
75616;SDS011;64200;55.426;37.758;2024-02-23T17:28:27;14.05;;;6.68;;
75616;SDS011;64200;55.426;37.758;2024-02-23T17:33:29;14.70;;;6.35;;
75616;SDS011;64200;55.426;37.758;2024-02-23T17:38:30;16.20;;;7.40;;
75616;SDS011;64200;55.426;37.758;2024-02-23T17:43:30;9.85;;;4.63;;
75616;SDS011;64200;55.426;37.758;2024-02-23T17:48:31;15.05;;;7.05;;
75616;SDS011;64200;55.426;37.758;2024-02-23T17:53:31;17.37;;;7.97;;
75616;SDS011;64200;55.426;37.758;2024-02-23T17:58:32;11.43;;;6.40;;
75616;SDS011;64200;55.426;37.758;2024-02-23T18:03:35;16.27;;;7.65;;
75616;SDS011;64200;55.426;37.758;2024-02-23T18:08:36;16.35;;;5.50;;
75616;SDS011;64200;55.426;37.758;2024-02-23T18:13:37;14.05;;;6.75;;
75616;SDS011;64200;55.426;37.758;2024-02-23T18:18:39;14.13;;;6.70;;
75616;SDS011;64200;55.426;37.758;2024-02-23T18:23:40;10.80;;;6.47;;
75616;SDS011;64200;55.426;37.758;2024-02-23T18:28:40;13.68;;;6.35;;
75616;SDS011;64200;55.426;37.758;2024-02-23T18:33:41;11.70;;;5.35;;
75616;SDS011;64200;55.426;37.758;2024-02-23T18:38:42;11.30;;;4.93;;
75616;SDS011;64200;55.426;37.758;2024-02-23T18:43:44;11.65;;;5.13;;
75616;SDS011;64200;55.426;37.758;2024-02-23T18:48:44;10.73;;;4.65;;
75616;SDS011;64200;55.426;37.758;2024-02-23T18:53:48;9.75;;;5.82;;
75616;SDS011;64200;55.426;37.758;2024-02-23T18:58:52;13.77;;;5.63;;
75616;SDS011;64200;55.426;37.758;2024-02-23T19:03:53;17.92;;;6.93;;
75616;SDS011;64200;55.426;37.758;2024-02-23T19:08:54;20.35;;;8.63;;
75616;SDS011;64200;55.426;37.758;2024-02-23T19:13:55;16.30;;;8.23;;
75616;SDS011;64200;55.426;37.758;2024-02-23T19:18:55;14.88;;;7.38;;
75616;SDS011;64200;55.426;37.758;2024-02-23T19:23:56;9.93;;;5.32;;
75616;SDS011;64200;55.426;37.758;2024-02-23T19:28:57;11.90;;;6.80;;
75616;SDS011;64200;55.426;37.758;2024-02-23T19:33:57;12.50;;;5.68;;
75616;SDS011;64200;55.426;37.758;2024-02-23T19:39:01;9.93;;;4.70;;
75616;SDS011;64200;55.426;37.758;2024-02-23T19:44:06;14.70;;;7.53;;
75616;SDS011;64200;55.426;37.758;2024-02-23T19:49:07;11.02;;;5.32;;
75616;SDS011;64200;55.426;37.758;2024-02-23T19:54:08;30.83;;;11.07;;
75616;SDS011;64200;55.426;37.758;2024-02-23T19:59:08;20.52;;;7.40;;
75616;SDS011;64200;55.426;37.758;2024-02-23T20:04:09;15.23;;;7.00;;
75616;SDS011;64200;55.426;37.758;2024-02-23T20:09:10;16.65;;;8.43;;
75616;SDS011;64200;55.426;37.758;2024-02-23T20:14:12;13.60;;;6.18;;
75616;SDS011;64200;55.426;37.758;2024-02-23T20:19:13;6.40;;;3.58;;
75616;SDS011;64200;55.426;37.758;2024-02-23T20:24:14;11.85;;;5.65;;
75616;SDS011;64200;55.426;37.758;2024-02-23T20:29:15;12.88;;;5.85;;
75616;SDS011;64200;55.426;37.758;2024-02-23T20:34:15;11.07;;;5.35;;
75616;SDS011;64200;55.426;37.758;2024-02-23T20:39:16;12.20;;;6.38;;
75616;SDS011;64200;55.426;37.758;2024-02-23T20:44:17;9.93;;;4.93;;
75616;SDS011;64200;55.426;37.758;2024-02-23T20:49:17;11.23;;;5.53;;
75616;SDS011;64200;55.426;37.758;2024-02-23T20:54:18;10.20;;;4.67;;
75616;SDS011;64200;55.426;37.758;2024-02-23T20:59:18;13.25;;;6.18;;
75616;SDS011;64200;55.426;37.758;2024-02-23T21:04:19;20.38;;;7.93;;
75616;SDS011;64200;55.426;37.758;2024-02-23T21:09:20;17.37;;;8.67;;
75616;SDS011;64200;55.426;37.758;2024-02-23T21:14:20;16.67;;;6.65;;
75616;SDS011;64200;55.426;37.758;2024-02-23T21:19:21;12.60;;;5.88;;
75616;SDS011;64200;55.426;37.758;2024-02-23T21:24:21;13.87;;;6.17;;
75616;SDS011;64200;55.426;37.758;2024-02-23T21:29:22;7.03;;;3.87;;
75616;SDS011;64200;55.426;37.758;2024-02-23T21:34:22;7.60;;;4.22;;
75616;SDS011;64200;55.426;37.758;2024-02-23T21:39:23;10.00;;;5.53;;
75616;SDS011;64200;55.426;37.758;2024-02-23T21:44:24;8.88;;;4.28;;
75616;SDS011;64200;55.426;37.758;2024-02-23T21:49:24;11.52;;;4.72;;
75616;SDS011;64200;55.426;37.758;2024-02-23T21:54:25;7.20;;;3.90;;
75616;SDS011;64200;55.426;37.758;2024-02-23T21:59:28;8.43;;;4.28;;
75616;SDS011;64200;55.426;37.758;2024-02-23T22:04:30;8.45;;;4.75;;
75616;SDS011;64200;55.426;37.758;2024-02-23T22:09:31;9.43;;;4.78;;
75616;SDS011;64200;55.426;37.758;2024-02-23T22:14:32;12.00;;;5.77;;
75616;SDS011;64200;55.426;37.758;2024-02-23T22:19:32;10.30;;;5.53;;
75616;SDS011;64200;55.426;37.758;2024-02-23T22:24:33;6.70;;;4.23;;
75616;SDS011;64200;55.426;37.758;2024-02-23T22:29:33;8.40;;;3.90;;
75616;SDS011;64200;55.426;37.758;2024-02-23T22:34:36;4.63;;;2.72;;
75616;SDS011;64200;55.426;37.758;2024-02-23T22:39:37;7.65;;;3.83;;
75616;SDS011;64200;55.426;37.758;2024-02-23T22:44:38;6.10;;;3.77;;
75616;SDS011;64200;55.426;37.758;2024-02-23T22:49:39;8.75;;;4.60;;
75616;SDS011;64200;55.426;37.758;2024-02-23T22:54:39;7.50;;;3.95;;
75616;SDS011;64200;55.426;37.758;2024-02-23T22:59:40;4.90;;;3.33;;
75616;SDS011;64200;55.426;37.758;2024-02-23T23:04:41;5.90;;;3.65;;
75616;SDS011;64200;55.426;37.758;2024-02-23T23:09:41;5.77;;;3.93;;
75616;SDS011;64200;55.426;37.758;2024-02-23T23:14:43;6.25;;;3.40;;
75616;SDS011;64200;55.426;37.758;2024-02-23T23:19:44;10.25;;;4.53;;
75616;SDS011;64200;55.426;37.758;2024-02-23T23:24:45;11.07;;;5.18;;
75616;SDS011;64200;55.426;37.758;2024-02-23T23:29:46;6.67;;;3.73;;
75616;SDS011;64200;55.426;37.758;2024-02-23T23:34:47;10.10;;;4.68;;
75616;SDS011;64200;55.426;37.758;2024-02-23T23:39:48;8.53;;;3.97;;
75616;SDS011;64200;55.426;37.758;2024-02-23T23:44:49;5.30;;;3.65;;
75616;SDS011;64200;55.426;37.758;2024-02-23T23:49:50;7.83;;;4.30;;
75616;SDS011;64200;55.426;37.758;2024-02-23T23:54:50;6.32;;;3.95;;
75616;SDS011;64200;55.426;37.758;2024-02-23T23:59:51;5.63;;;2.93;;
